Blabla — OS7401 — position and weather

sailwx.info

Track history (hours):
 
Tides and Currents Weather Stations Pressure Air Temp Water Temp Dewpoint Dewpoint Depression Visibility Wind Speed Wind Dir Waves Ship Positions

Blabla

Last reported at 2018-May-20 09:58 UTC. Time now 2018-Jun-21 02:47 UTC.
Position N 43°20' W 003°01'.
Warning: this ship's position is 31 days out of date.

Length 15 m.

Type: Sailing vessel. MMSI: 205740100.

Date/timePositionNaut miles runAvg speedWind from/ knotsBaromVisibWave heightAir tempDewpointWater temp
2018-May-20 09:58N 43°20' W 003°01'0 0.0
2018-May-20 09:07N 43°20' W 003°01'0 0.0
2018-May-20 08:55N 43°20' W 003°01'0 0.0
2018-May-20 08:22N 43°20' W 003°01'0 0.0
2018-May-20 07:25N 43°20' W 003°01'0 0.0
2018-May-20 05:49N 43°20' W 003°01'0 0.0
2018-May-20 02:19N 43°20' W 003°01'0 0.0
2018-May-20 01:49N 43°20' W 003°01'0 0.0
2018-May-20 00:13N 43°20' W 003°01'0 0.0
2018-May-19 23:58N 43°20' W 003°01'0 0.0
2018-May-19 20:55N 43°20' W 003°01'0 0.0
2018-May-19 20:25N 43°20' W 003°01'0 0.0
2018-May-19 19:37N 43°20' W 003°01'0 0.0
2018-May-19 19:25N 43°20' W 003°01'0 0.0
2018-May-19 18:07N 43°20' W 003°01'0 0.0
2018-May-19 17:55N 43°20' W 003°01'0 0.0
2018-May-19 17:25N 43°20' W 003°01'0 0.1
2018-May-19 16:56N 43°20' W 003°01'3 2.6
2018-May-19 15:39N 43°23' W 003°02'1 5.5
2018-May-19 15:30N 43°24' W 003°02'16 6.5
2018-May-19 13:06N 43°38' W 002°53'0 4.2
2018-May-19 13:00N 43°38' W 002°53'3 3.4
2018-May-19 12:06N 43°41' W 002°51'1 3.6
2018-May-19 11:56N 43°42' W 002°51'3 6.6
2018-May-19 11:30N 43°44' W 002°49'4 6.5
2018-May-19 10:57N 43°48' W 002°47'147 6.0
2018-May-18 10:33N 46°03' W 001°26'1 6.0
2018-May-18 10:28N 46°03' W 001°26'3 5.6
2018-May-18 10:00N 46°06' W 001°24'3 5.4
2018-May-18 09:30N 46°07' W 001°20'3 6.7
2018-May-18 09:00N 46°07' W 001°15'4 7.3
2018-May-18 08:30N 46°09' W 001°11'0 0.6
2018-May-18 07:58N 46°09' W 001°10'0 0.0
2018-May-18 07:28N 46°09' W 001°10'0 0.0
2018-May-18 06:58N 46°09' W 001°10'0 0.0
2018-May-18 06:25N 46°09' W 001°10'0 0.0
2018-May-18 05:58N 46°09' W 001°10'0 0.0
2018-May-18 05:28N 46°09' W 001°10'0 0.0
2018-May-18 04:58N 46°09' W 001°10'0 0.0
2018-May-18 04:28N 46°09' W 001°10'0 0.0
2018-May-18 03:58N 46°09' W 001°10'0 0.0
2018-May-18 03:28N 46°09' W 001°10'0 0.0
2018-May-18 02:58N 46°09' W 001°10'0 0.0
2018-May-18 02:28N 46°09' W 001°10'0 0.0
2018-May-18 01:58N 46°09' W 001°10'0 0.0
2018-May-18 01:28N 46°09' W 001°10'0 0.0
2018-May-18 00:58N 46°09' W 001°10'0 0.0
2018-May-18 00:28N 46°09' W 001°10'0 0.0
2018-May-17 23:58N 46°09' W 001°10'0 0.0
2018-May-17 23:28N 46°09' W 001°10'0 0.0
2018-May-17 22:58N 46°09' W 001°10'0 0.0
2018-May-17 22:28N 46°09' W 001°10'0 0.0
2018-May-17 21:58N 46°09' W 001°10'0 0.0
2018-May-17 21:28N 46°09' W 001°10'0 0.0
2018-May-17 20:58N 46°09' W 001°10'0 0.0
2018-May-17 20:28N 46°09' W 001°10'0 0.0
2018-May-17 19:58N 46°09' W 001°10'0 0.0
2018-May-17 19:28N 46°09' W 001°10'0 0.0
2018-May-17 18:58N 46°09' W 001°10'0 0.0
2018-May-17 18:28N 46°09' W 001°10'0 0.0
2018-May-17 17:58N 46°09' W 001°10'0 0.0
2018-May-17 17:28N 46°09' W 001°10'0 0.0
2018-May-17 16:58N 46°09' W 001°10'0 0.0
2018-May-17 16:28N 46°09' W 001°10'0 0.0
2018-May-17 15:58N 46°09' W 001°10'0 0.0
2018-May-17 15:28N 46°09' W 001°10'0 0.0
2018-May-17 14:58N 46°09' W 001°10'0 0.0
2018-May-17 14:28N 46°09' W 001°10'0 0.0
2018-May-17 13:58N 46°09' W 001°10'0 0.0
2018-May-17 13:28N 46°09' W 001°10'0 0.0
2018-May-17 13:00N 46°09' W 001°10'2 4.4
2018-May-17 12:30N 46°09' W 001°13'2 4.8
2018-May-17 11:59N 46°11' W 001°15'3 6.2
2018-May-17 11:30N 46°13' W 001°18'4 7.6
2018-May-17 11:00N 46°16' W 001°22'14 6.7
2018-May-17 08:53N 46°24' W 001°38'3 6.5
2018-May-17 08:30N 46°26' W 001°41'3 6.2
2018-May-17 08:00N 46°28' W 001°45'3 6.0
2018-May-17 07:30N 46°30' W 001°48'0 1.0
2018-May-17 06:59N 46°30' W 001°47'0 0.0
2018-May-17 06:29N 46°30' W 001°47'0 0.0
2018-May-17 05:59N 46°30' W 001°47'0 0.0
2018-May-17 05:29N 46°30' W 001°47'0 0.0
2018-May-17 04:59N 46°30' W 001°47'0 0.0
2018-May-17 04:29N 46°30' W 001°47'0 0.0
2018-May-17 03:59N 46°30' W 001°47'0 0.0
2018-May-17 03:29N 46°30' W 001°47'0 0.0
2018-May-17 02:59N 46°30' W 001°47'0 0.0
2018-May-17 02:29N 46°30' W 001°47'0 0.0
2018-May-17 01:59N 46°30' W 001°47'0 0.0
2018-May-17 01:29N 46°30' W 001°47'0 0.0
2018-May-17 00:59N 46°30' W 001°47'0 0.0
2018-May-17 00:29N 46°30' W 001°47'0 0.0
2018-May-16 23:59N 46°30' W 001°47'0 0.0
2018-May-16 23:29N 46°30' W 001°47'0 0.0
2018-May-16 22:59N 46°30' W 001°47'0 0.0
2018-May-16 22:30N 46°30' W 001°47'0 0.0
2018-May-16 21:59N 46°30' W 001°47'0 0.0
2018-May-16 21:30N 46°30' W 001°47'0 0.0
2018-May-16 21:00N 46°30' W 001°47'0 0.0
2018-May-16 20:30N 46°30' W 001°47'0 0.0
2018-May-16 20:00N 46°30' W 001°47'0 0.0
2018-May-16 19:30N 46°30' W 001°47'0 0.0
2018-May-16 19:00N 46°30' W 001°47'0 0.0
2018-May-16 18:30N 46°30' W 001°47'0 0.0
2018-May-16 18:00N 46°30' W 001°47'0 0.0
2018-May-16 17:30N 46°30' W 001°47'0 0.0
2018-May-16 17:00N 46°30' W 001°47'0 0.0
2018-May-16 16:30N 46°30' W 001°47'0 0.0
2018-May-16 16:00N 46°30' W 001°47'0 0.0
2018-May-16 15:30N 46°30' W 001°47'0 0.0
2018-May-16 15:00N 46°30' W 001°47'0 0.0
2018-May-16 14:30N 46°30' W 001°47'0 0.0
2018-May-16 14:00N 46°30' W 001°47'0 0.0
2018-May-16 13:30N 46°30' W 001°47'0 0.0
2018-May-16 13:00N 46°30' W 001°47'0 0.0
2018-May-16 12:30N 46°30' W 001°47'0 0.5
2018-May-16 11:58N 46°30' W 001°48'1 2.9
2018-May-16 11:30N 46°29' W 001°49'2 4.1
2018-May-16 11:00N 46°30' W 001°52'  
2018-May-14 06:01N 47°26' W 002°34'0 6.9
2018-May-14 06:00N 47°26' W 002°34'  
Track history (hours):
 
Tides and Currents Weather Stations Pressure Air Temp Water Temp Dewpoint Dewpoint Depression Visibility Wind Speed Wind Dir Waves Ship Positions

Blabla

Last reported at 2018-May-20 09:58 UTC. Time now 2018-Jun-21 02:47 UTC.
Position N 43°20' W 003°01'.
Warning: this ship's position is 31 days out of date.

Length 15 m.

Type: Sailing vessel. MMSI: 205740100.

Date/timePositionNaut miles runAvg speedWind from/ knotsBaromVisibWave heightAir tempDewpointWater temp
2018-May-20 09:58N 43°20' W 003°01'0 0.0
2018-May-20 09:07N 43°20' W 003°01'0 0.0
2018-May-20 08:55N 43°20' W 003°01'0 0.0
2018-May-20 08:22N 43°20' W 003°01'0 0.0
2018-May-20 07:25N 43°20' W 003°01'0 0.0
2018-May-20 05:49N 43°20' W 003°01'0 0.0
2018-May-20 02:19N 43°20' W 003°01'0 0.0
2018-May-20 01:49N 43°20' W 003°01'0 0.0
2018-May-20 00:13N 43°20' W 003°01'0 0.0
2018-May-19 23:58N 43°20' W 003°01'0 0.0
2018-May-19 20:55N 43°20' W 003°01'0 0.0
2018-May-19 20:25N 43°20' W 003°01'0 0.0
2018-May-19 19:37N 43°20' W 003°01'0 0.0
2018-May-19 19:25N 43°20' W 003°01'0 0.0
2018-May-19 18:07N 43°20' W 003°01'0 0.0
2018-May-19 17:55N 43°20' W 003°01'0 0.0
2018-May-19 17:25N 43°20' W 003°01'0 0.1
2018-May-19 16:56N 43°20' W 003°01'3 2.6
2018-May-19 15:39N 43°23' W 003°02'1 5.5
2018-May-19 15:30N 43°24' W 003°02'16 6.5
2018-May-19 13:06N 43°38' W 002°53'0 4.2
2018-May-19 13:00N 43°38' W 002°53'3 3.4
2018-May-19 12:06N 43°41' W 002°51'1 3.6
2018-May-19 11:56N 43°42' W 002°51'3 6.6
2018-May-19 11:30N 43°44' W 002°49'4 6.5
2018-May-19 10:57N 43°48' W 002°47'147 6.0
2018-May-18 10:33N 46°03' W 001°26'1 6.0
2018-May-18 10:28N 46°03' W 001°26'3 5.6
2018-May-18 10:00N 46°06' W 001°24'3 5.4
2018-May-18 09:30N 46°07' W 001°20'3 6.7
2018-May-18 09:00N 46°07' W 001°15'4 7.3
2018-May-18 08:30N 46°09' W 001°11'0 0.6
2018-May-18 07:58N 46°09' W 001°10'0 0.0
2018-May-18 07:28N 46°09' W 001°10'0 0.0
2018-May-18 06:58N 46°09' W 001°10'0 0.0
2018-May-18 06:25N 46°09' W 001°10'0 0.0
2018-May-18 05:58N 46°09' W 001°10'0 0.0
2018-May-18 05:28N 46°09' W 001°10'0 0.0
2018-May-18 04:58N 46°09' W 001°10'0 0.0
2018-May-18 04:28N 46°09' W 001°10'0 0.0
2018-May-18 03:58N 46°09' W 001°10'0 0.0
2018-May-18 03:28N 46°09' W 001°10'0 0.0
2018-May-18 02:58N 46°09' W 001°10'0 0.0
2018-May-18 02:28N 46°09' W 001°10'0 0.0
2018-May-18 01:58N 46°09' W 001°10'0 0.0
2018-May-18 01:28N 46°09' W 001°10'0 0.0
2018-May-18 00:58N 46°09' W 001°10'0 0.0
2018-May-18 00:28N 46°09' W 001°10'0 0.0
2018-May-17 23:58N 46°09' W 001°10'0 0.0
2018-May-17 23:28N 46°09' W 001°10'0 0.0
2018-May-17 22:58N 46°09' W 001°10'0 0.0
2018-May-17 22:28N 46°09' W 001°10'0 0.0
2018-May-17 21:58N 46°09' W 001°10'0 0.0
2018-May-17 21:28N 46°09' W 001°10'0 0.0
2018-May-17 20:58N 46°09' W 001°10'0 0.0
2018-May-17 20:28N 46°09' W 001°10'0 0.0
2018-May-17 19:58N 46°09' W 001°10'0 0.0
2018-May-17 19:28N 46°09' W 001°10'0 0.0
2018-May-17 18:58N 46°09' W 001°10'0 0.0
2018-May-17 18:28N 46°09' W 001°10'0 0.0
2018-May-17 17:58N 46°09' W 001°10'0 0.0
2018-May-17 17:28N 46°09' W 001°10'0 0.0
2018-May-17 16:58N 46°09' W 001°10'0 0.0
2018-May-17 16:28N 46°09' W 001°10'0 0.0
2018-May-17 15:58N 46°09' W 001°10'0 0.0
2018-May-17 15:28N 46°09' W 001°10'0 0.0
2018-May-17 14:58N 46°09' W 001°10'0 0.0
2018-May-17 14:28N 46°09' W 001°10'0 0.0
2018-May-17 13:58N 46°09' W 001°10'0 0.0
2018-May-17 13:28N 46°09' W 001°10'0 0.0
2018-May-17 13:00N 46°09' W 001°10'2 4.4
2018-May-17 12:30N 46°09' W 001°13'2 4.8
2018-May-17 11:59N 46°11' W 001°15'3 6.2
2018-May-17 11:30N 46°13' W 001°18'4 7.6
2018-May-17 11:00N 46°16' W 001°22'14 6.7
2018-May-17 08:53N 46°24' W 001°38'3 6.5
2018-May-17 08:30N 46°26' W 001°41'3 6.2
2018-May-17 08:00N 46°28' W 001°45'3 6.0
2018-May-17 07:30N 46°30' W 001°48'0 1.0
2018-May-17 06:59N 46°30' W 001°47'0 0.0
2018-May-17 06:29N 46°30' W 001°47'0 0.0
2018-May-17 05:59N 46°30' W 001°47'0 0.0
2018-May-17 05:29N 46°30' W 001°47'0 0.0
2018-May-17 04:59N 46°30' W 001°47'0 0.0
2018-May-17 04:29N 46°30' W 001°47'0 0.0
2018-May-17 03:59N 46°30' W 001°47'0 0.0
2018-May-17 03:29N 46°30' W 001°47'0 0.0
2018-May-17 02:59N 46°30' W 001°47'0 0.0
2018-May-17 02:29N 46°30' W 001°47'0 0.0
2018-May-17 01:59N 46°30' W 001°47'0 0.0
2018-May-17 01:29N 46°30' W 001°47'0 0.0
2018-May-17 00:59N 46°30' W 001°47'0 0.0
2018-May-17 00:29N 46°30' W 001°47'0 0.0
2018-May-16 23:59N 46°30' W 001°47'0 0.0
2018-May-16 23:29N 46°30' W 001°47'0 0.0
2018-May-16 22:59N 46°30' W 001°47'0 0.0
2018-May-16 22:30N 46°30' W 001°47'0 0.0
2018-May-16 21:59N 46°30' W 001°47'0 0.0
2018-May-16 21:30N 46°30' W 001°47'0 0.0
2018-May-16 21:00N 46°30' W 001°47'0 0.0
2018-May-16 20:30N 46°30' W 001°47'0 0.0
2018-May-16 20:00N 46°30' W 001°47'0 0.0
2018-May-16 19:30N 46°30' W 001°47'0 0.0
2018-May-16 19:00N 46°30' W 001°47'0 0.0
2018-May-16 18:30N 46°30' W 001°47'0 0.0
2018-May-16 18:00N 46°30' W 001°47'0 0.0
2018-May-16 17:30N 46°30' W 001°47'0 0.0
2018-May-16 17:00N 46°30' W 001°47'0 0.0
2018-May-16 16:30N 46°30' W 001°47'0 0.0
2018-May-16 16:00N 46°30' W 001°47'0 0.0
2018-May-16 15:30N 46°30' W 001°47'0 0.0
2018-May-16 15:00N 46°30' W 001°47'0 0.0
2018-May-16 14:30N 46°30' W 001°47'0 0.0
2018-May-16 14:00N 46°30' W 001°47'0 0.0
2018-May-16 13:30N 46°30' W 001°47'0 0.0
2018-May-16 13:00N 46°30' W 001°47'0 0.0
2018-May-16 12:30N 46°30' W 001°47'0 0.5
2018-May-16 11:58N 46°30' W 001°48'1 2.9
2018-May-16 11:30N 46°29' W 001°49'2 4.1
2018-May-16 11:00N 46°30' W 001°52'  
2018-May-14 06:01N 47°26' W 002°34'0 6.9
2018-May-14 06:00N 47°26' W 002°34'  

Dump ship's entire track history